Eros, Louisiana
Current Conditions -  °F | °C
As of 10:55 PM on Saturday 22 Nov 2014 (Local Time) from KRSN Reporting Station
Moderate Rain Moderate Rain  
Wind Chill: 61°   Ceiling: 9000
Heat Index: 61°   Visibility: 10mi
Dew Point: 59°   Wind: 8mph
Humidity: 92%   Direction: 140°SE
Pressure: 29.89"   Gusts: NA
Location:  32.39°N, 92.42°W
Report Text: KRSN 230455Z AUTO 14007KT 10SM RA SCT017 BKN090 OVC110 16/15 A2989 RMK AO2 T01610148
Loading
Personal Weather Stations






























Interactive Weather Map New forecast layout! Learn more

10-Day Weather Forecast

Advertisements
Track Severe Weather on mobile